Time;durP1;ratioP1;P1;durP2;ratioP2;P2;SDS_P1;SDS_P2;PMS_P1;PMS_P2;Temp;Humidity;BMP_temperature;BMP_pressure;BME280_temperature;BME280_humidity;BME280_pressure;Samples;Min_cycle;Max_cycle;Signal;HPM_P1;HPM_P2
2023/10/12 00:01:57;;;;;;;8.93;1.70;;;;;;;9.21;100.00;100311.97;5042639;28;20160;-66
2023/10/12 00:04:37;;;;;;;8.52;1.73;;;;;;;9.07;100.00;100307.28;5035917;28;20090;-66
2023/10/12 00:07:21;;;;;;;6.53;1.83;;;;;;;9.02;100.00;100317.06;5038552;28;20088;-67
2023/10/12 00:09:48;;;;;;;5.13;1.30;;;;;;;9.04;100.00;100313.47;5036840;28;20475;-66
2023/10/12 00:12:23;;;;;;;6.13;1.63;;;;;;;9.07;100.00;100310.75;5042110;28;20471;-66
2023/10/12 00:14:54;;;;;;;3.58;1.40;;;;;;;9.01;100.00;100312.72;5033993;28;20441;-66
2023/10/12 00:17:26;;;;;;;7.25;1.55;;;;;;;9.04;100.00;100320.44;5036028;28;20053;-66
2023/10/12 00:19:53;;;;;;;6.38;1.40;;;;;;;9.06;100.00;100323.84;5042268;28;20042;-66
2023/10/12 00:22:20;;;;;;;5.22;1.35;;;;;;;9.15;100.00;100330.47;5033572;28;20057;-66
2023/10/12 00:24:48;;;;;;;3.53;1.00;;;;;;;9.19;100.00;100329.44;5039793;28;20056;-66
2023/10/12 00:27:15;;;;;;;7.22;1.60;;;;;;;9.19;100.00;100335.53;5048499;28;20299;-66
2023/10/12 00:29:42;;;;;;;5.97;1.33;;;;;;;9.19;100.00;100334.69;5048695;28;20042;-66
2023/10/12 00:32:09;;;;;;;9.48;1.50;;;;;;;9.09;100.00;100321.97;5050060;28;20071;-66
2023/10/12 00:34:45;;;;;;;4.40;1.30;;;;;;;9.02;100.00;100315.28;5045721;28;20728;-66
2023/10/12 00:37:14;;;;;;;7.38;1.35;;;;;;;8.87;100.00;100284.53;5046599;28;20053;-66
2023/10/12 00:39:47;;;;;;;3.08;1.40;;;;;;;8.90;100.00;100294.84;5042031;28;20053;-66
2023/10/12 00:42:17;;;;;;;9.80;1.83;;;;;;;8.98;100.00;100313.72;5048533;28;20114;-66
2023/10/12 00:44:48;;;;;;;11.88;1.73;;;;;;;8.98;100.00;100316.31;5043392;28;20057;-66
2023/10/12 00:47:30;;;;;;;7.05;1.23;;;;;;;8.98;100.00;100325.88;5048496;28;20059;-66
2023/10/12 00:50:06;;;;;;;4.47;1.42;;;;;;;8.93;100.00;100320.84;5040131;28;20789;-66
2023/10/12 00:52:46;;;;;;;3.63;1.10;;;;;;;8.96;100.00;100323.38;5051238;28;20522;-65
2023/10/12 00:55:21;;;;;;;3.50;1.20;;;;;;;8.98;100.00;100331.09;5049413;28;20052;-65
2023/10/12 00:57:50;;;;;;;6.45;1.42;;;;;;;8.87;100.00;100321.06;5050419;28;20120;-66
2023/10/12 01:00:18;;;;;;;3.38;1.20;;;;;;;8.89;100.00;100325.34;5050255;28;20102;-65
2023/10/12 01:03:06;;;;;;;3.85;1.20;;;;;;;8.81;100.00;100329.97;5045830;28;20042;-67
2023/10/12 01:05:35;;;;;;;4.78;1.20;;;;;;;8.84;100.00;100331.66;5049191;28;20136;-66
2023/10/12 01:08:04;;;;;;;5.55;1.40;;;;;;;8.77;100.00;100325.78;5046768;28;20045;-66
2023/10/12 01:10:32;;;;;;;5.25;1.30;;;;;;;8.81;100.00;100326.53;5048504;28;20053;-66
2023/10/12 01:13:03;;;;;;;2.53;1.10;;;;;;;8.67;100.00;100314.81;5049569;28;20131;-66
2023/10/12 01:15:31;;;;;;;4.97;1.35;;;;;;;8.63;100.00;100322.84;5050158;28;20067;-66
2023/10/12 01:17:58;;;;;;;3.80;1.30;;;;;;;8.57;100.00;100317.81;5062982;28;20053;-66
2023/10/12 01:20:32;;;;;;;2.70;1.10;;;;;;;8.42;100.00;100317.47;5051606;28;20087;-66
2023/10/12 01:22:59;;;;;;;6.10;1.20;;;;;;;8.22;100.00;100319.91;5051210;28;20414;-66
2023/10/12 01:25:29;;;;;;;4.10;1.10;;;;;;;8.11;100.00;100315.91;5049007;28;20059;-67
2023/10/12 01:27:59;;;;;;;9.35;1.52;;;;;;;8.07;100.00;100326.47;5047350;28;20494;-66
2023/10/12 01:30:27;;;;;;;3.90;1.45;;;;;;;8.01;100.00;100326.69;5042101;28;20056;-66
2023/10/12 01:32:57;;;;;;;6.63;1.70;;;;;;;8.05;100.00;100328.28;5053715;28;20469;-66
2023/10/12 01:35:32;;;;;;;8.95;1.65;;;;;;;8.15;100.00;100332.28;5059764;28;20059;-66
2023/10/12 01:38:00;;;;;;;4.35;1.25;;;;;;;8.05;100.00;100304.81;5046165;28;20527;-66
2023/10/12 01:40:45;;;;;;;4.53;1.20;;;;;;;8.16;100.00;100323.53;5046653;28;20080;-66
2023/10/12 01:43:17;;;;;;;3.92;1.20;;;;;;;8.10;100.00;100319.41;5065063;28;20090;-66
2023/10/12 01:45:44;;;;;;;5.28;1.17;;;;;;;8.06;100.00;100330.84;5056340;28;20560;-66
2023/10/12 01:48:12;;;;;;;1.63;0.95;;;;;;;8.00;100.00;100325.81;5046968;28;20055;-66
2023/10/12 01:50:39;;;;;;;4.82;1.35;;;;;;;7.86;100.00;100334.13;5058454;28;20462;-67
2023/10/12 01:53:26;;;;;;;5.88;1.67;;;;;;;7.86;100.00;100343.69;5057339;28;20064;-66
2023/10/12 01:55:54;;;;;;;5.72;1.48;;;;;;;7.85;100.00;100340.22;5055756;28;20048;-66
2023/10/12 01:58:32;;;;;;;5.25;1.48;;;;;;;7.80;100.00;100342.97;5047577;28;20525;-67
2023/10/12 02:01:05;;;;;;;3.22;1.27;;;;;;;7.83;100.00;100354.22;5056366;28;20475;-67
2023/10/12 02:03:33;;;;;;;;;;;;;;;7.74;100.00;100351.00;5050628;28;20418;-66
2023/10/12 02:06:13;;;;;;;6.85;1.60;;;;;;;7.57;100.00;100341.09;5059974;28;19928;-66
2023/10/12 02:08:52;;;;;;;4.20;1.40;;;;;;;7.67;100.00;100351.25;5047482;28;20421;-66
2023/10/12 02:13:47;;;;;;;8.68;1.60;;;;;;;7.70;100.00;100353.75;5059309;28;20067;-66
2023/10/12 02:16:24;;;;;;;4.28;1.10;;;;;;;7.69;100.00;100358.13;5053895;28;20134;-66
2023/10/12 02:18:54;;;;;;;5.32;1.23;;;;;;;7.64;100.00;100362.63;5057208;28;20067;-66
2023/10/12 02:21:22;;;;;;;3.90;1.23;;;;;;;7.49;100.00;100339.63;5050494;28;20568;-66
2023/10/12 02:23:57;;;;;;;3.03;1.15;;;;;;;7.50;100.00;100364.78;5065910;28;20048;-66
2023/10/12 02:31:30;;;;;;;4.50;1.20;;;;;;;7.53;100.00;100355.13;5050592;28;20399;-65
2023/10/12 02:34:00;;;;;;;2.67;1.10;;;;;;;7.56;100.00;100362.88;5056981;28;20064;-66
2023/10/12 02:36:28;;;;;;;3.50;1.20;;;;;;;7.50;100.00;100364.78;5049635;28;20049;-66
2023/10/12 02:39:10;;;;;;;2.72;1.20;;;;;;;7.55;100.00;100366.34;5041186;28;20153;-65
2023/10/12 02:41:37;;;;;;;3.67;1.40;;;;;;;7.52;100.00;100358.63;5048693;28;20120;-66
2023/10/12 02:44:18;;;;;;;3.88;1.73;;;;;;;7.57;100.00;100364.56;5044548;28;20059;-66
2023/10/12 02:47:04;;;;;;;4.15;1.25;;;;;;;7.38;100.00;100353.00;5050547;28;20052;-66
2023/10/12 02:49:37;;;;;;;3.13;1.27;;;;;;;7.30;100.00;100349.78;5041815;28;20049;-65
2023/10/12 02:52:08;;;;;;;4.78;1.40;;;;;;;7.26;100.00;100348.16;5049989;28;20041;-65
2023/10/12 02:54:49;;;;;;;4.28;1.15;;;;;;;7.23;100.00;100362.13;5049704;28;20055;-65
2023/10/12 02:57:31;;;;;;;2.78;1.00;;;;;;;7.25;100.00;100359.50;5059256;28;20126;-66
2023/10/12 03:00:12;;;;;;;4.55;1.30;;;;;;;7.25;100.00;100362.94;5052521;28;20902;-66
2023/10/12 03:02:41;;;;;;;5.22;1.60;;;;;;;7.16;100.00;100361.44;5046211;28;20554;-65
2023/10/12 03:05:08;;;;;;;5.63;1.80;;;;;;;7.01;100.00;100360.16;5052134;28;20072;-67
2023/10/12 03:07:38;;;;;;;5.38;1.50;;;;;;;7.02;100.00;100367.06;5048553;28;20535;-66
2023/10/12 03:10:14;;;;;;;8.23;2.17;;;;;;;7.21;100.00;100367.38;5048669;28;20125;-66
2023/10/12 03:12:43;;;;;;;5.78;1.70;;;;;;;7.35;100.00;100369.56;5055069;28;20061;-66
2023/10/12 03:15:13;;;;;;;6.55;1.85;;;;;;;7.40;100.00;100364.22;5067223;28;20048;-66
2023/10/12 03:17:57;;;;;;;5.00;1.40;;;;;;;7.56;100.00;100367.19;5048857;28;20144;-66
2023/10/12 03:20:28;;;;;;;2.33;1.20;;;;;;;7.65;100.00;100366.94;5049924;28;20483;-66
2023/10/12 03:22:59;;;;;;;5.55;1.58;;;;;;;7.75;100.00;100373.53;5048469;28;20049;-66
2023/10/12 03:28:30;;;;;;;3.10;1.10;;;;;;;7.83;100.00;100373.31;5048987;28;20044;-66
2023/10/12 03:31:15;;;;;;;5.47;1.30;;;;;;;7.93;100.00;100382.56;5058369;28;20467;-66
2023/10/12 03:33:54;;;;;;;3.85;1.60;;;;;;;8.07;100.00;100373.41;5042087;28;20048;-66
2023/10/12 03:36:25;;;;;;;3.63;1.10;;;;;;;8.22;100.00;100377.28;5041257;28;20504;-66
2023/10/12 03:52:27;;;;;;;3.42;1.00;;;;;;;8.49;100.00;100394.63;5056228;28;20041;-66
2023/10/12 04:16:09;;;;;;;4.93;1.63;;;;;;;7.92;100.00;100385.19;5034581;28;20063;-66
2023/10/12 04:18:42;;;;;;;5.35;1.33;;;;;;;7.71;100.00;100397.16;5050567;28;20423;-66
2023/10/12 04:21:10;;;;;;;4.88;1.40;;;;;;;7.51;100.00;100385.59;5050205;28;20076;-67
2023/10/12 04:24:27;;;;;;;4.72;1.30;;;;;;;7.51;100.00;100395.19;5055321;28;20068;-65
2023/10/12 04:34:15;;;;;;;5.55;1.48;;;;;;;7.58;100.00;100404.50;5055831;28;20048;-66
2023/10/12 04:39:26;;;;;;;2.53;1.10;;;;;;;7.58;100.00;100389.72;5049118;28;20053;-66
2023/10/12 04:42:20;;;;;;;4.15;1.10;;;;;;;7.63;100.00;100410.41;5041983;28;20072;-66
2023/10/12 04:47:35;;;;;;;8.95;1.50;;;;;;;7.63;100.00;100404.34;5067560;28;20056;-66
2023/10/12 04:50:05;;;;;;;3.53;1.00;;;;;;;7.21;100.00;100359.56;5045164;28;20045;-66
2023/10/12 04:52:36;;;;;;;1.85;0.90;;;;;;;7.50;100.00;100401.28;5049805;28;20471;-66
2023/10/12 04:55:07;;;;;;;3.38;1.20;;;;;;;7.49;100.00;100392.63;5051032;28;20514;-66
2023/10/12 04:57:34;;;;;;;3.28;1.10;;;;;;;7.45;100.00;100388.38;5051636;28;20061;-66
2023/10/12 05:02:42;;;;;;;2.70;1.02;;;;;;;7.36;100.00;100392.09;5058999;28;20052;-66
2023/10/12 05:05:37;;;;;;;3.15;1.00;;;;;;;7.21;100.00;100398.63;5049882;28;20071;-66
2023/10/12 05:08:03;;;;;;;4.32;1.10;;;;;;;7.02;100.00;100403.50;5054299;28;20052;-67
2023/10/12 05:13:04;;;;;;;5.70;1.20;;;;;;;6.88;100.00;100387.41;5059582;28;20060;-66
2023/10/12 05:15:50;;;;;;;1.38;0.90;;;;;;;7.08;100.00;100406.84;5066139;28;20532;-65
2023/10/12 05:18:18;;;;;;;2.42;1.00;;;;;;;6.92;100.00;100402.03;5048030;28;20053;-66
2023/10/12 05:20:44;;;;;;;1.80;0.90;;;;;;;6.91;100.00;100400.34;5049714;28;20051;-66
2023/10/12 05:23:12;;;;;;;5.82;1.40;;;;;;;6.93;100.00;100403.75;5044007;28;20045;-66
2023/10/12 05:28:18;;;;;;;4.00;1.10;;;;;;;6.98;100.00;100414.91;5046487;28;20103;-66
2023/10/12 05:30:59;;;;;;;5.10;1.15;;;;;;;6.99;100.00;100407.94;5049488;28;20037;-66
2023/10/12 05:36:10;;;;;;;1.95;1.00;;;;;;;6.84;100.00;100399.66;5049663;28;20478;-66
2023/10/12 05:38:59;;;;;;;2.40;1.00;;;;;;;6.88;100.00;100400.44;5050024;28;20064;-66
2023/10/12 05:43:58;;;;;;;2.83;1.20;;;;;;;6.47;100.00;100418.00;5041787;28;20697;-66
2023/10/12 05:46:32;;;;;;;3.58;1.20;;;;;;;6.48;100.00;100419.72;5048877;28;20095;-66
2023/10/12 05:49:02;;;;;;;5.05;1.20;;;;;;;6.55;100.00;100417.78;5049727;28;20139;-66
2023/10/12 05:51:28;;;;;;;1.98;0.90;;;;;;;6.75;100.00;100412.09;5049163;28;20128;-66
2023/10/12 05:54:01;;;;;;;3.35;1.10;;;;;;;6.66;100.00;100428.78;5047045;28;20048;-66
2023/10/12 05:56:34;;;;;;;5.63;1.05;;;;;;;6.75;100.00;100427.69;5042688;28;20505;-66
2023/10/12 05:59:09;;;;;;;3.50;1.58;;;;;;;6.75;100.00;100428.53;5042606;28;20053;-66
2023/10/12 06:01:37;;;;;;;2.53;1.00;;;;;;;6.79;100.00;100437.13;5034765;28;20529;-66
2023/10/12 06:04:07;;;;;;;2.95;0.95;;;;;;;6.87;100.00;100426.50;5035442;28;20479;-66
2023/10/12 06:06:35;;;;;;;1.88;1.00;;;;;;;6.81;100.00;100435.31;5047584;28;20049;-67
2023/10/12 06:09:10;;;;;;;1.67;0.90;;;;;;;6.75;100.00;100425.09;5048856;28;20088;-66
2023/10/12 06:11:41;;;;;;;1.23;0.80;;;;;;;6.72;100.00;100427.78;5046480;28;20483;-66
2023/10/12 06:14:09;;;;;;;1.85;1.00;;;;;;;6.71;100.00;100432.13;5049664;28;20072;-66
2023/10/12 06:16:40;;;;;;;2.63;1.10;;;;;;;6.79;100.00;100447.53;5049643;28;20048;-66
2023/10/12 06:19:18;;;;;;;1.88;0.90;;;;;;;6.77;100.00;100444.97;5049922;28;20059;-66
2023/10/12 06:21:46;;;;;;;2.65;1.10;;;;;;;6.76;100.00;100452.81;5047723;28;20059;-66
2023/10/12 06:24:13;;;;;;;2.13;1.00;;;;;;;6.79;100.00;100450.13;5047828;28;20135;-66
2023/10/12 06:26:44;;;;;;;3.50;1.00;;;;;;;6.76;100.00;100452.81;5054704;28;20127;-66
2023/10/12 06:29:12;;;;;;;2.85;1.00;;;;;;;6.82;100.00;100461.31;5047874;28;20531;-66
2023/10/12 06:31:40;;;;;;;3.50;1.17;;;;;;;6.77;100.00;100457.13;5036028;28;20053;-66
2023/10/12 06:34:11;;;;;;;2.05;1.10;;;;;;;6.76;100.00;100460.63;5046863;28;20526;-66
2023/10/12 06:36:38;;;;;;;2.78;1.25;;;;;;;6.74;100.00;100462.41;5042188;28;20045;-66
2023/10/12 06:46:49;;;;;;;3.22;1.20;;;;;;;6.76;100.00;100464.06;5048436;28;20526;-66
2023/10/12 06:49:28;;;;;;;3.10;1.20;;;;;;;6.80;100.00;100457.91;5048325;28;20045;-66
2023/10/12 06:52:02;;;;;;;2.28;1.10;;;;;;;6.80;100.00;100463.09;5049590;28;20284;-66
2023/10/12 06:54:39;;;;;;;3.35;1.30;;;;;;;6.82;100.00;100473.47;5045578;28;20563;-66
2023/10/12 07:02:29;;;;;;;2.42;1.15;;;;;;;7.02;100.00;100462.53;5046263;28;20462;-66
2023/10/12 07:04:58;;;;;;;4.47;1.20;;;;;;;6.98;100.00;100460.91;5046665;28;20077;-66
2023/10/12 07:07:27;;;;;;;4.43;1.38;;;;;;;7.13;100.00;100457.03;5037072;28;20055;-67
2023/10/12 07:10:52;;;;;;;2.92;1.15;;;;;;;7.08;100.00;100466.72;5043048;28;20045;-66
2023/10/12 07:12:48;;;;;;;1.70;1.10;;;;;;;7.00;100.00;100462.56;5036687;28;20149;-67
2023/10/12 07:15:22;;;;;;;3.38;1.17;;;;;;;7.02;100.00;100463.38;5041406;28;20056;-66
2023/10/12 07:17:50;;;;;;;3.80;1.20;;;;;;;7.13;100.00;100464.84;5041858;28;20057;-66
2023/10/12 07:22:55;;;;;;;4.03;1.00;;;;;;;7.47;100.00;100451.72;5043062;28;20091;-67
2023/10/12 07:25:23;;;;;;;2.80;1.20;;;;;;;7.45;100.00;100460.47;5043365;28;20055;-66
2023/10/12 07:27:59;;;;;;;2.58;1.20;;;;;;;7.40;100.00;100444.97;5045489;28;20049;-66
2023/10/12 07:30:36;;;;;;;3.55;1.40;;;;;;;7.91;100.00;100449.50;5044623;28;20083;-66
2023/10/12 07:33:07;;;;;;;2.95;1.23;;;;;;;8.50;100.00;100458.13;5042266;28;20076;-66
2023/10/12 07:35:35;;;;;;;4.63;1.60;;;;;;;9.03;100.00;100436.25;5046049;28;20055;-67
2023/10/12 07:38:12;;;;;;;7.25;2.42;;;;;;;9.17;100.00;100448.81;5047355;28;20807;-67
2023/10/12 07:43:24;;;;;;;9.90;2.60;;;;;;;9.03;100.00;100452.78;5032966;28;20045;-66
2023/10/12 07:45:52;;;;;;;6.07;2.28;;;;;;;9.26;100.00;100441.50;5034990;28;20106;-67
2023/10/12 07:48:31;;;;;;;8.20;2.33;;;;;;;9.60;100.00;100436.78;5036924;28;20045;-67
2023/10/12 07:51:19;;;;;;;5.95;1.63;;;;;;;9.89;100.00;100443.47;5047176;28;21303;-68
2023/10/12 07:53:51;;;;;;;4.88;1.67;;;;;;;9.88;100.00;100429.56;5039439;28;20045;-67
2023/10/12 07:56:18;;;;;;;4.50;1.20;;;;;;;10.07;100.00;100421.84;5048068;28;20106;-67
2023/10/12 07:58:56;;;;;;;5.60;1.63;;;;;;;10.23;100.00;100431.66;5048104;28;20368;-67
2023/10/12 08:04:00;;;;;;;6.05;1.58;;;;;;;10.69;100.00;100429.75;5048783;28;20518;-67
2023/10/12 08:06:36;;;;;;;6.05;1.73;;;;;;;10.87;100.00;100407.19;5048731;28;20540;-67
2023/10/12 08:09:39;;;;;;;7.07;1.50;;;;;;;11.00;100.00;100392.59;5049066;28;20317;-67
2023/10/12 08:12:23;;;;;;;5.43;1.60;;;;;;;11.19;100.00;100412.72;5042041;28;20120;-67
2023/10/12 08:14:54;;;;;;;3.50;1.20;;;;;;;11.57;100.00;100418.81;5045185;28;20053;-67
2023/10/12 08:17:33;;;;;;;3.72;1.17;;;;;;;11.87;100.00;100412.22;5048885;28;20430;-67
2023/10/12 08:22:51;;;;;;;3.38;1.20;;;;;;;12.22;100.00;100400.03;5045962;28;20063;-67
2023/10/12 08:25:27;;;;;;;4.72;1.42;;;;;;;12.31;100.00;100411.84;5049258;28;20041;-67
2023/10/12 08:28:05;;;;;;;5.13;1.20;;;;;;;12.18;100.00;100413.38;5046609;28;20048;-67
2023/10/12 08:30:56;;;;;;;4.53;1.20;;;;;;;12.00;100.00;100410.72;5048642;28;20053;-66
2023/10/12 08:33:48;;;;;;;7.00;1.30;;;;;;;12.06;100.00;100414.84;5048909;28;20052;-66
2023/10/12 08:39:08;;;;;;;11.27;2.33;;;;;;;12.25;100.00;100414.75;5052874;28;20064;-67
2023/10/12 08:44:20;;;;;;;5.03;1.48;;;;;;;12.48;100.00;100405.72;5052821;28;20045;-67
2023/10/12 08:46:56;;;;;;;4.72;1.40;;;;;;;12.46;100.00;100405.81;5052892;28;20388;-67
2023/10/12 08:49:53;;;;;;;3.97;1.27;;;;;;;12.25;100.00;100410.38;5054798;28;20049;-68
2023/10/12 08:52:29;;;;;;;4.75;1.30;;;;;;;12.18;100.00;100393.22;5054246;28;20053;-68
2023/10/12 08:55:05;;;;;;;4.28;1.25;;;;;;;12.07;100.00;100393.75;5050882;28;20141;-67
2023/10/12 08:57:55;;;;;;;3.08;1.10;;;;;;;12.07;100.00;100393.75;5051293;28;20088;-67
2023/10/12 09:03:07;;;;;;;4.32;1.00;;;;;;;11.97;100.00;100389.91;5044975;28;20135;-68
2023/10/12 09:05:35;;;;;;;2.28;1.10;;;;;;;12.18;100.00;100374.00;5050909;28;20417;-68
2023/10/12 09:13:34;;;;;;;2.90;0.90;;;;;;;12.48;100.00;100368.97;5051506;28;20053;-67
2023/10/12 09:16:03;;;;;;;2.05;0.90;;;;;;;12.50;100.00;100364.47;5052933;28;20052;-67
2023/10/12 09:18:35;;;;;;;2.30;0.85;;;;;;;12.54;100.00;100366.03;5053586;28;20051;-67
2023/10/12 09:36:44;;;;;;;3.92;1.35;;;;;;;12.77;100.00;100317.56;5051456;28;20049;-68
2023/10/12 09:39:14;;;;;;;5.45;1.40;;;;;;;12.51;100.00;100311.88;5051054;28;20049;-68
2023/10/12 09:41:44;;;;;;;4.75;1.27;;;;;;;12.78;100.00;100303.47;5049398;28;20049;-68
2023/10/12 09:44:13;;;;;;;5.45;1.40;;;;;;;12.89;100.00;100321.28;5052822;28;20075;-68
2023/10/12 09:46:46;;;;;;;4.43;1.20;;;;;;;13.16;100.00;100324.22;5071117;28;20044;-68
2023/10/12 09:49:21;;;;;;;4.93;0.90;;;;;;;13.27;100.00;100329.72;5064847;28;20068;-68
2023/10/12 09:52:03;;;;;;;4.93;1.10;;;;;;;13.29;100.00;100309.44;5048650;28;20072;-68
2023/10/12 09:54:45;;;;;;;6.63;1.20;;;;;;;13.35;100.00;100302.16;5051205;28;20053;-68
2023/10/12 09:57:31;;;;;;;1.77;0.82;;;;;;;13.03;100.00;100318.78;5042692;28;20297;-68
2023/10/12 10:00:17;;;;;;;6.45;1.35;;;;;;;12.96;100.00;100304.28;5054004;28;20488;-68
2023/10/12 10:02:49;;;;;;;5.18;1.25;;;;;;;12.81;100.00;100305.94;5051958;28;20299;-68
2023/10/12 10:08:06;;;;;;;5.72;1.13;;;;;;;13.25;100.00;100305.28;5053834;28;20053;-68
2023/10/12 10:10:34;;;;;;;5.32;1.00;;;;;;;13.21;100.00;100301.16;5040390;28;20137;-68
2023/10/12 10:13:08;;;;;;;1.33;0.73;;;;;;;13.39;100.00;100286.16;5057939;28;20464;-68
2023/10/12 10:15:56;;;;;;;2.75;1.05;;;;;;;13.44;100.00;100302.53;5050780;28;20513;-68
2023/10/12 10:18:28;;;;;;;2.63;0.90;;;;;;;13.75;100.00;100297.28;5064674;28;20056;-68
2023/10/12 10:21:01;;;;;;;2.30;0.90;;;;;;;13.54;100.00;100294.09;5048805;28;20041;-68
2023/10/12 10:23:29;;;;;;;;;;;;;;;13.70;100.00;100301.97;5050945;28;20414;-68
2023/10/12 10:26:13;;;;;;;2.78;1.00;;;;;;;13.56;100.00;100298.31;5054836;28;19920;-68
2023/10/12 10:28:58;;;;;;;2.83;1.00;;;;;;;13.56;100.00;100289.59;5044524;28;20113;-68
2023/10/12 10:31:31;;;;;;;3.03;1.00;;;;;;;13.23;100.00;100288.75;5039702;28;20095;-67
2023/10/12 10:34:05;;;;;;;2.70;1.05;;;;;;;13.48;100.00;100287.41;5060277;28;20045;-68
2023/10/12 10:36:36;;;;;;;7.88;1.10;;;;;;;13.58;100.00;100278.06;5056504;28;20420;-68
2023/10/12 10:39:51;;;;;;;3.53;0.90;;;;;;;13.18;100.00;100282.06;5050905;28;20045;-68
2023/10/12 10:42:07;;;;;;;4.60;0.93;;;;;;;13.37;100.00;100263.50;5042515;28;20045;-68
2023/10/12 10:44:41;;;;;;;4.72;0.90;;;;;;;13.56;100.00;100261.50;5049918;28;20139;-68
2023/10/12 10:47:10;;;;;;;6.00;1.10;;;;;;;13.71;100.00;100251.88;5050636;28;20056;-68
2023/10/12 10:49:37;;;;;;;3.15;0.93;;;;;;;13.67;100.00;100256.50;5058738;28;20063;-67
2023/10/12 10:54:39;;;;;;;3.63;0.93;;;;;;;13.58;100.00;100246.50;5065247;28;20132;-68
2023/10/12 10:57:25;;;;;;;2.30;0.98;;;;;;;13.82;100.00;100240.72;5050253;28;20056;-68
2023/10/12 10:59:52;;;;;;;2.35;1.15;;;;;;;13.70;100.00;100244.91;5049666;28;20110;-68
2023/10/12 11:02:21;;;;;;;2.67;1.10;;;;;;;13.64;100.00;100242.66;5046557;28;20045;-68
2023/10/12 11:04:55;;;;;;;3.00;0.98;;;;;;;13.73;100.00;100246.53;5055641;28;20135;-68
2023/10/12 11:07:21;;;;;;;3.47;0.90;;;;;;;13.92;100.00;100231.38;5050242;28;20505;-68
2023/10/12 11:12:21;;;;;;;4.97;1.33;;;;;;;14.28;100.00;100230.06;5049746;28;20044;-68
2023/10/12 11:14:58;;;;;;;2.85;0.90;;;;;;;14.04;100.00;100227.13;5051546;28;20052;-68
2023/10/12 11:17:30;;;;;;;4.72;1.10;;;;;;;13.76;100.00;100222.69;5057944;28;20047;-68
2023/10/12 11:20:00;;;;;;;5.00;1.08;;;;;;;13.76;100.00;100217.44;5049102;28;20453;-68
2023/10/12 11:22:27;;;;;;;8.65;1.20;;;;;;;13.64;100.00;100209.31;5044785;28;20041;-68
2023/10/12 11:24:54;;;;;;;6.00;1.60;;;;;;;13.70;100.00;100215.97;5050011;28;20375;-68
2023/10/12 11:27:35;;;;;;;4.32;0.93;;;;;;;13.67;100.00;100198.59;5054806;28;20470;-67
2023/10/12 11:30:19;;;;;;;9.95;1.40;;;;;;;13.43;100.00;100210.56;5060966;28;20159;-67
2023/10/12 11:32:53;;;;;;;2.50;1.00;;;;;;;13.75;100.00;100195.50;5049039;28;20136;-68
2023/10/12 11:35:34;;;;;;;7.13;1.35;;;;;;;13.50;100.00;100203.16;5049367;28;20509;-68
2023/10/12 11:38:03;;;;;;;10.57;1.40;;;;;;;13.41;100.00;100199.28;5050575;28;20075;-68
2023/10/12 11:40:31;;;;;;;4.25;1.10;;;;;;;13.58;100.00;100193.03;5057375;28;20045;-68
2023/10/12 11:42:58;;;;;;;5.57;1.38;;;;;;;13.54;100.00;100199.41;5046900;28;20045;-68
2023/10/12 11:45:32;;;;;;;5.32;1.27;;;;;;;13.42;100.00;100190.44;5048555;28;20140;-68
2023/10/12 11:48:20;;;;;;;4.80;1.30;;;;;;;13.48;100.00;100161.19;5049001;28;20083;-67
2023/10/12 11:50:49;;;;;;;3.90;1.20;;;;;;;13.43;100.00;100147.44;5051470;28;20132;-68
2023/10/12 11:53:18;;;;;;;6.45;1.33;;;;;;;13.69;100.00;100164.31;5045945;28;20059;-68
2023/10/12 11:55:47;;;;;;;4.28;1.20;;;;;;;14.05;100.00;100152.50;5049517;28;20045;-68
2023/10/12 11:58:19;;;;;;;2.88;1.00;;;;;;;14.44;100.00;100148.31;5049134;28;20077;-67
2023/10/12 12:00:50;;;;;;;3.25;1.10;;;;;;;14.27;100.00;100154.66;5056434;28;20085;-68
2023/10/12 12:03:17;;;;;;;3.90;1.00;;;;;;;14.66;100.00;100161.03;5049872;28;20495;-68
2023/10/12 12:05:54;;;;;;;3.38;0.98;;;;;;;14.67;100.00;100160.06;5049851;28;20048;-68
2023/10/12 12:08:25;;;;;;;7.65;1.63;;;;;;;14.12;100.00;100147.72;5049776;28;20049;-67
2023/10/12 12:10:56;;;;;;;6.82;1.52;;;;;;;14.41;100.00;100130.06;5048044;28;20410;-68
2023/10/12 12:13:23;;;;;;;7.63;1.67;;;;;;;14.35;100.00;100135.75;5056670;28;20136;-68
2023/10/12 12:15:55;;;;;;;3.97;1.35;;;;;;;14.84;100.00;100127.38;5064031;28;20041;-67
2023/10/12 12:18:22;;;;;;;3.20;1.00;;;;;;;14.88;100.00;100126.22;5068856;28;20052;-68
2023/10/12 12:20:56;;;;;;;5.10;1.30;;;;;;;14.81;100.00;100132.84;5054434;28;20229;-68
2023/10/12 12:23:27;;;;;;;8.85;1.50;;;;;;;14.55;100.00;100137.09;5062398;28;20048;-68
2023/10/12 12:26:05;;;;;;;7.55;1.80;;;;;;;14.57;100.00;100133.44;5054700;28;20534;-67
2023/10/12 12:28:32;;;;;;;9.32;2.70;;;;;;;14.12;100.00;100121.38;5052835;28;20053;-67
2023/10/12 12:31:03;;;;;;;12.15;3.92;;;;;;;14.22;100.00;100119.88;5061954;28;20063;-68
2023/10/12 12:33:30;;;;;;;11.98;4.47;;;;;;;13.97;100.00;100123.16;5047078;28;20049;-67
2023/10/12 12:36:00;;;;;;;14.48;4.70;;;;;;;14.36;100.00;100122.47;5052952;28;20049;-67
2023/10/12 12:40:55;;;;;;;16.25;5.95;;;;;;;14.34;100.00;100127.00;5058749;28;20057;-68
2023/10/12 12:43:22;;;;;;;14.25;7.35;;;;;;;14.37;100.00;100108.34;5052851;28;20045;-67
2023/10/12 12:45:48;;;;;;;20.73;9.45;;;;;;;13.94;100.00;100110.22;5052217;28;20059;-67
2023/10/12 12:48:15;;;;;;;22.50;9.65;;;;;;;13.94;100.00;100113.69;5052681;28;20048;-68
2023/10/12 12:50:45;;;;;;;18.15;6.90;;;;;;;13.84;100.00;100088.88;5052206;28;20422;-67
2023/10/12 12:53:11;;;;;;;11.68;4.47;;;;;;;14.17;100.00;100091.19;5050971;28;20055;-68
2023/10/12 12:55:38;;;;;;;13.02;4.30;;;;;;;14.19;100.00;100080.56;5051835;28;20045;-67
2023/10/12 12:58:06;;;;;;;12.55;4.28;;;;;;;14.44;100.00;100083.31;5052060;28;20239;-67
2023/10/12 13:00:35;;;;;;;9.80;3.20;;;;;;;14.43;100.00;100068.47;5052651;28;20394;-68
2023/10/12 13:03:02;;;;;;;10.75;3.13;;;;;;;14.23;100.00;100063.63;5068848;28;20048;-67
2023/10/12 13:05:29;;;;;;;7.95;3.00;;;;;;;14.01;100.00;100064.97;5052958;28;20136;-67
2023/10/12 13:07:56;;;;;;;13.40;3.70;;;;;;;13.98;100.00;100065.16;5051649;28;20053;-67
2023/10/12 13:10:25;;;;;;;11.63;4.20;;;;;;;14.26;100.00;100081.03;5052537;28;20041;-67
2023/10/12 13:12:53;;;;;;;14.60;5.53;;;;;;;14.12;100.00;100069.56;5050934;28;20091;-67
2023/10/12 13:15:21;;;;;;;14.85;5.68;;;;;;;14.46;100.00;100072.69;5051985;28;20470;-67
2023/10/12 13:17:48;;;;;;;13.30;5.25;;;;;;;14.59;100.00;100070.16;5044262;28;20092;-68
2023/10/12 13:20:29;;;;;;;13.63;4.97;;;;;;;14.70;100.00;100061.56;5053516;28;20084;-68
2023/10/12 13:22:56;;;;;;;15.50;5.20;;;;;;;14.94;100.00;100080.16;5055220;28;20170;-67
2023/10/12 13:25:25;;;;;;;12.18;5.15;;;;;;;14.45;100.00;100071.00;5057614;28;20044;-68
2023/10/12 13:27:53;;;;;;;14.85;4.95;;;;;;;14.05;100.00;100063.00;5051680;28;20084;-68
2023/10/12 13:30:20;;;;;;;11.10;4.32;;;;;;;14.28;100.00;100051.00;5062600;28;20125;-68
2023/10/12 13:32:52;;;;;;;15.07;4.65;;;;;;;14.38;100.00;100060.03;5040897;28;20060;-67
2023/10/12 13:35:31;;;;;;;9.60;3.53;;;;;;;14.20;100.00;100050.66;5063938;28;20048;-68
2023/10/12 13:38:06;;;;;;;12.23;3.47;;;;;;;14.37;100.00;100049.59;5063549;28;20049;-68
2023/10/12 13:40:37;;;;;;;13.02;4.90;;;;;;;14.06;100.00;100054.19;5060591;28;20064;-67
2023/10/12 13:43:14;;;;;;;10.93;4.10;;;;;;;13.97;100.00;100044.22;5051453;28;20045;-67
2023/10/12 13:45:47;;;;;;;11.15;5.32;;;;;;;14.02;100.00;100031.59;5051667;28;20045;-67
2023/10/12 13:48:17;;;;;;;11.27;4.10;;;;;;;13.98;100.00;100043.28;5038519;28;20051;-67
2023/10/12 13:50:50;;;;;;;10.10;3.85;;;;;;;14.10;100.00;100034.59;5050487;28;20049;-67
2023/10/12 13:53:18;;;;;;;11.63;3.85;;;;;;;14.17;100.00;100033.28;5048340;28;20041;-67
2023/10/12 13:55:47;;;;;;;10.40;3.58;;;;;;;14.25;100.00;100032.78;5051645;28;20099;-67
2023/10/12 13:58:15;;;;;;;10.20;3.10;;;;;;;14.14;100.00;100025.56;5051950;28;20057;-67
2023/10/12 14:00:42;;;;;;;7.80;2.40;;;;;;;14.24;100.00;100033.72;5058394;28;20060;-67
2023/10/12 14:03:14;;;;;;;6.70;2.13;;;;;;;14.11;100.00;100028.41;5062825;28;20064;-67